Impacts METAR Board
IDs:

KMCO - Orlando Intl, FL, US

Updated at: 2000 UTC 16 Aug 2018
Potential Impact None Slight Moderate High
Time 16/08Z 16/09Z 16/10Z 16/11Z 16/12Z 16/13Z 16/14Z 16/15Z 16/16Z 16/17Z 16/18Z 16/19Z 16/20Z
Temp78 77 76 77 78 82 85 87 89 91 93 93 94
Dewpt76 76 76 75 78 77 77 76 72 73 71 70 71
Altim30.11 30.11 30.12 30.14 30.15 30.17 30.17 30.17 30.18 30.17 30.16 30.14 30.12
VIS10 10 10 10 10 10 10 10 10 10 10 10 10
CIG-- -- -- -- -- -- -- -- -- -- -- 250 250
CoverFEWFEWCLRSCTFEWFEWFEWFEWSCTSCTSCTBKNBKN
FltCatVFRVFRVFRVFRVFRVFRVFRVFRVFRVFRVFRVFRVFR
WX--------------------------
WDir0009070140150170017017017080
WSpd0 0 0 4 3 7 7 5 4 7 8 5 8
WGst-- -- -- -- -- -- -- -- -- -- -- -- --
Raw hourly METARs
KMCO 160753Z 00000KT 10SM FEW250 26/24 A3011 RMK AO2 SLP195 T02560244
KMCO 160853Z 00000KT 10SM FEW060 FEW250 25/24 A3011 RMK AO2 SLP193 T02500244 56014
KMCO 160953Z 00000KT 10SM CLR 24/24 A3012 RMK AO2 SLP198 T02440244
KMCO 161053Z 09004KT 10SM FEW030 FEW120 SCT250 25/24 A3014 RMK AO2 SLP204 T02500239
KMCO 161153Z 07003KT 10SM FEW250 26/26 A3015 RMK AO2 SLP208 T02560256 10256 20244 51015
KMCO 161253Z 14007KT 10SM FEW010 FEW250 28/25 A3017 RMK AO2 SLP215 T02780250
KMCO 161353Z 15007KT 10SM FEW022 FEW250 29/25 A3017 RMK AO2 SLP216 T02940250
KMCO 161453Z 17005KT 10SM FEW027 FEW250 31/24 A3017 RMK AO2 SLP216 T03060244 51008
KMCO 161553Z VRB04KT 10SM SCT038 SCT250 32/22 A3018 RMK AO2 SLP217 T03170222
KMCO 161653Z 17007KT 10SM SCT040 SCT250 33/23 A3017 RMK AO2 SLP215 T03280228
KMCO 161753Z 17008KT 10SM SCT044 SCT250 34/22 A3016 RMK AO2 SLP211 T03390217 10339 20261 58004
KMCO 161853Z 17005KT 10SM FEW050 BKN250 34/21 A3014 RMK AO2 RAB20E30 SLP205 P0000 T03390211
KMCO 161953Z 08008KT 10SM SCT060 BKN250 34/22 A3012 RMK AO2 SLP199 T03440217



Page loaded:  20:19 UTC  |   01:19 PM Pacific  |   02:19 PM Mountain  |   03:19 PM Central  |   04:19 PM Eastern

 

ADVISORIES

FORECASTS

FORECASTS

OBSERVATIONS

USER TOOLS

ABOUT US